Terminal Aerodrome Forecast
Issued by NWS Sterling, VA

Home | Current Version | Previous Version | Text Only | Print | Product List | Glossary On
Versions: 1 2 3 4 5 6 7 8 9 10 11 12 13 14 15 16 17 18 19 20 21 22 23
000
FTUS41 KLWX 062327
TAFBWI
TAF
KBWI 062327Z 0700/0806 16008KT P6SM SHRA VCTS BKN090CB
      TEMPO 0700/0702 18012G22KT 3SM -TSRA BKN040CB
     FM070300 14005KT P6SM BKN060
     FM070700 00000KT P6SM BKN090
     FM070800 00000KT P6SM SCT090
     FM071200 23006KT P6SM SCT110=

USA.gov is the U.S. government's official web portal to all federal, state and local government web resources and services.